createdAt,value
2017-11-08T00:00:33.953Z,5.27
2017-11-08T00:01:33.833Z,5.24
2017-11-08T00:02:34.178Z,5.18
2017-11-08T00:03:33.508Z,5.2
2017-11-08T00:04:33.798Z,5.18
2017-11-08T00:05:33.435Z,5.15
2017-11-08T00:06:33.421Z,5.21
2017-11-08T00:07:34.091Z,5.2
2017-11-08T00:08:33.737Z,5.26
2017-11-08T00:09:33.717Z,5.28
2017-11-08T00:10:33.365Z,5.27
2017-11-08T00:11:33.688Z,5.27
2017-11-08T00:12:34.020Z,5.23
2017-11-08T00:13:33.662Z,5.33
2017-11-08T00:14:33.308Z,5.3
2017-11-08T00:15:33.653Z,5.34
2017-11-08T00:16:33.278Z,5.37
2017-11-08T00:17:33.615Z,5.39
2017-11-08T00:18:33.937Z,5.34
2017-11-08T00:19:33.915Z,5.36
2017-11-08T00:20:33.910Z,5.31
2017-11-08T00:21:33.208Z,5.36
2017-11-08T00:22:33.193Z,5.36
2017-11-08T00:23:33.519Z,5.3
2017-11-08T00:24:33.197Z,5.39
2017-11-08T00:25:33.543Z,5.34
2017-11-08T00:26:33.838Z,5.27
2017-11-08T00:27:33.482Z,5.18
2017-11-08T00:28:33.119Z,5.23
2017-11-08T00:29:33.118Z,5.26
2017-11-08T00:30:33.232Z,5.26
2017-11-08T00:31:33.469Z,5.23
2017-11-08T00:32:33.410Z,5.26
2017-11-08T00:33:33.384Z,5.27
2017-11-08T00:34:33.410Z,5.24
2017-11-08T00:35:33.013Z,5.26
2017-11-08T00:36:33.001Z,5.2
2017-11-08T00:37:33.014Z,5.2
2017-11-08T00:38:32.982Z,5.28
2017-11-08T00:39:32.956Z,5.28
2017-11-08T00:40:33.622Z,5.21
2017-11-08T00:41:32.931Z,5.23
2017-11-08T00:42:33.280Z,5.26
2017-11-08T00:43:32.938Z,5.2
2017-11-08T00:44:32.886Z,5.16
2017-11-08T00:45:32.871Z,5.15
2017-11-08T00:46:33.220Z,5.15
2017-11-08T00:47:32.843Z,5.18
2017-11-08T00:48:32.831Z,5.16
2017-11-08T00:49:32.814Z,5.16
2017-11-08T00:50:33.141Z,5.13
2017-11-08T00:51:33.474Z,5.13
2017-11-08T00:52:33.118Z,5.15
2017-11-08T00:53:33.105Z,5.21
2017-11-08T00:54:32.765Z,5.09
2017-11-08T00:55:33.465Z,5.12
2017-11-08T00:56:33.402Z,5.12
2017-11-08T00:57:33.045Z,5.13
2017-11-08T00:58:33.029Z,5.06
2017-11-08T00:59:33.033Z,5.15
2017-11-08T01:00:33.002Z,5.1
2017-11-08T01:01:32.990Z,5.15
2017-11-08T01:02:32.972Z,5.23
2017-11-08T01:03:32.629Z,5.15
2017-11-08T01:04:32.606Z,5.09
2017-11-08T01:05:32.660Z,5.12
2017-11-08T01:06:32.920Z,5.06
2017-11-08T01:07:32.561Z,5.09
2017-11-08T01:08:32.548Z,5.09
2017-11-08T01:09:32.872Z,5.09
2017-11-08T01:10:32.520Z,5.1
2017-11-08T01:11:32.845Z,5.09
2017-11-08T01:12:32.490Z,5.18
2017-11-08T01:13:32.483Z,5.13
2017-11-08T01:14:32.468Z,5.1
2017-11-08T01:15:32.447Z,5.2
2017-11-08T01:16:32.775Z,5.15
2017-11-08T01:17:32.419Z,5.21
2017-11-08T01:18:32.750Z,5.15
2017-11-08T01:19:32.401Z,5.15
2017-11-08T01:20:33.057Z,5.1
2017-11-08T01:21:32.365Z,5.12
2017-11-08T01:22:32.362Z,5.15
2017-11-08T01:23:33.016Z,5.08
2017-11-08T01:24:32.326Z,5.12
2017-11-08T01:25:32.303Z,5.1
2017-11-08T01:26:32.291Z,5.05
2017-11-08T01:27:32.275Z,5.05
2017-11-08T01:28:32.264Z,5.06
2017-11-08T01:29:32.250Z,5.12
2017-11-08T01:30:32.912Z,4.94
2017-11-08T01:31:32.578Z,4.97
2017-11-08T01:32:32.575Z,4.92
2017-11-08T01:33:32.548Z,4.9
2017-11-08T01:34:32.188Z,4.92
2017-11-08T01:35:32.505Z,4.9
2017-11-08T01:36:32.152Z,4.9
2017-11-08T01:37:32.139Z,4.92
2017-11-08T01:38:32.466Z,4.91
2017-11-08T01:39:32.452Z,4.97
2017-11-08T01:40:32.449Z,4.95
2017-11-08T01:41:32.083Z,4.9
2017-11-08T01:42:32.069Z,4.83
2017-11-08T01:43:32.390Z,4.83
2017-11-08T01:44:32.046Z,4.88
2017-11-08T01:45:32.043Z,4.84
2017-11-08T01:46:32.346Z,4.87
2017-11-08T01:47:32.007Z,4.88
2017-11-08T01:48:32.671Z,4.83
2017-11-08T01:49:31.964Z,4.95
2017-11-08T01:50:32.652Z,4.92
2017-11-08T01:51:32.278Z,4.92
2017-11-08T01:52:31.922Z,4.87
2017-11-08T01:53:32.245Z,4.9
2017-11-08T01:54:32.232Z,4.88
2017-11-08T01:55:32.230Z,4.92
2017-11-08T01:56:31.863Z,4.92
2017-11-08T01:57:32.187Z,4.95
2017-11-08T01:58:31.842Z,4.94
2017-11-08T01:59:31.826Z,4.95
2017-11-08T02:00:31.807Z,4.92
2017-11-08T02:01:31.796Z,4.95
2017-11-08T02:02:32.114Z,4.88
2017-11-08T02:03:31.780Z,5
2017-11-08T02:04:31.749Z,5
2017-11-08T02:05:32.076Z,4.97
2017-11-08T02:06:32.062Z,4.92
2017-11-08T02:07:32.051Z,5.02
2017-11-08T02:08:31.692Z,5.02
2017-11-08T02:09:32.018Z,5.03
2017-11-08T02:10:32.007Z,5.05
2017-11-08T02:11:32.002Z,5
2017-11-08T02:12:31.636Z,5.05
2017-11-08T02:13:31.621Z,5.02
2017-11-08T02:14:31.608Z,5.1
2017-11-08T02:15:31.932Z,5.06
2017-11-08T02:16:31.918Z,5.09
2017-11-08T02:17:31.564Z,5.12
2017-11-08T02:18:31.548Z,5.05
2017-11-08T02:19:31.883Z,5.05
2017-11-08T02:20:32.215Z,5.05
2017-11-08T02:21:31.507Z,5.08
2017-11-08T02:22:31.831Z,5.09
2017-11-08T02:23:31.481Z,5.12
2017-11-08T02:24:31.802Z,5.08
2017-11-08T02:25:31.813Z,5.13
2017-11-08T02:26:31.778Z,5.13
2017-11-08T02:27:31.420Z,5.12
2017-11-08T02:28:31.760Z,5.18
2017-11-08T02:29:31.735Z,5.15
2017-11-08T02:30:31.379Z,5.13
2017-11-08T02:31:31.707Z,5.12
2017-11-08T02:32:31.693Z,5.16
2017-11-08T02:33:31.347Z,5.13
2017-11-08T02:34:31.668Z,5.18
2017-11-08T02:35:31.992Z,5.13
2017-11-08T02:36:31.646Z,5.21
2017-11-08T02:37:31.625Z,5.1
2017-11-08T02:38:31.264Z,5.2
2017-11-08T02:39:31.590Z,5.13
2017-11-08T02:40:31.240Z,5.13
2017-11-08T02:41:31.564Z,5.12
2017-11-08T02:42:31.549Z,5.09
2017-11-08T02:43:31.194Z,5.05
2017-11-08T02:44:31.522Z,5.13
2017-11-08T02:45:31.168Z,5.06
2017-11-08T02:46:31.154Z,5.03
2017-11-08T02:47:31.138Z,5.12
2017-11-08T02:48:31.460Z,5.09
2017-11-08T02:49:31.449Z,5.05
2017-11-08T02:50:31.108Z,5.12
2017-11-08T02:51:31.424Z,5.06
2017-11-08T02:52:31.436Z,5.08
2017-11-08T02:53:31.052Z,5.13
2017-11-08T02:54:31.399Z,5.13
2017-11-08T02:55:31.030Z,5.2
2017-11-08T02:56:31.356Z,5.15
2017-11-08T02:57:31.688Z,5.12
2017-11-08T02:58:31.328Z,5.1
2017-11-08T02:59:31.309Z,5.2
2017-11-08T03:00:30.955Z,5.09
2017-11-08T03:01:30.940Z,5.09
2017-11-08T03:02:30.934Z,5.2
2017-11-08T03:03:30.917Z,5.13
2017-11-08T03:04:31.239Z,5.13
2017-11-08T03:05:30.896Z,5.12
2017-11-08T03:06:31.209Z,5.18
2017-11-08T03:07:31.203Z,5.15
2017-11-08T03:08:31.184Z,5.15
2017-11-08T03:09:30.824Z,5.12
2017-11-08T03:10:31.148Z,5.18
2017-11-08T03:11:30.817Z,5.18
2017-11-08T03:12:30.782Z,5.16
2017-11-08T03:13:31.111Z,5.2
2017-11-08T03:14:31.109Z,5.21
2017-11-08T03:15:31.079Z,5.2
2017-11-08T03:16:31.065Z,5.18
2017-11-08T03:17:31.049Z,5.16
2017-11-08T03:18:31.038Z,5.18
2017-11-08T03:19:31.024Z,5.15
2017-11-08T03:20:30.669Z,5.23
2017-11-08T03:21:31.332Z,5.16
2017-11-08T03:22:30.982Z,5.3
2017-11-08T03:23:31.317Z,5.27
2017-11-08T03:24:30.613Z,5.27
2017-11-08T03:25:30.600Z,5.2
2017-11-08T03:26:30.590Z,5.16
2017-11-08T03:27:31.267Z,5.34
2017-11-08T03:28:30.896Z,5.33
2017-11-08T03:29:30.567Z,5.2
2017-11-08T03:30:30.874Z,5.26
2017-11-08T03:31:30.535Z,5.2
2017-11-08T03:32:31.184Z,5.23
2017-11-08T03:33:30.830Z,5.26
2017-11-08T03:34:30.829Z,5.27
2017-11-08T03:35:30.800Z,5.23
2017-11-08T03:36:30.456Z,5.2
2017-11-08T03:37:31.115Z,5.15
2017-11-08T03:38:30.445Z,5.16
2017-11-08T03:39:30.401Z,5.13
2017-11-08T03:40:30.390Z,5.2
2017-11-08T03:41:30.733Z,5.15
2017-11-08T03:42:31.049Z,5.15
2017-11-08T03:43:30.344Z,5.21
2017-11-08T03:44:31.009Z,5.23
2017-11-08T03:45:30.316Z,5.2
2017-11-08T03:46:30.312Z,5.15
2017-11-08T03:47:30.295Z,5.15
2017-11-08T03:48:30.632Z,5.15
2017-11-08T03:49:30.622Z,5.2
2017-11-08T03:50:30.587Z,5.2
2017-11-08T03:51:30.571Z,5.23
2017-11-08T03:52:30.216Z,5.26
2017-11-08T03:53:30.543Z,5.26
2017-11-08T03:54:30.189Z,5.21
2017-11-08T03:55:30.174Z,5.16
2017-11-08T03:56:30.499Z,5.18
2017-11-08T03:57:30.825Z,5.15
2017-11-08T03:58:30.477Z,5.21
2017-11-08T03:59:30.118Z,5.2
2017-11-08T04:00:30.443Z,5.15
2017-11-08T04:01:30.448Z,5.16
2017-11-08T04:02:30.426Z,5.15
2017-11-08T04:03:30.061Z,5.13
2017-11-08T04:04:30.386Z,5.2
2017-11-08T04:05:30.034Z,5.13
2017-11-08T04:06:30.018Z,5.15
2017-11-08T04:07:30.004Z,5.23
2017-11-08T04:08:30.344Z,5.23
2017-11-08T04:09:29.979Z,5.2
2017-11-08T04:10:29.965Z,5.23
2017-11-08T04:11:29.949Z,5.3
2017-11-08T04:12:29.934Z,5.21
2017-11-08T04:13:30.262Z,5.18
2017-11-08T04:14:30.249Z,5.23
2017-11-08T04:15:30.232Z,5.24
2017-11-08T04:16:30.218Z,5.28
2017-11-08T04:17:30.203Z,5.16
2017-11-08T04:18:29.861Z,5.12
2017-11-08T04:19:29.836Z,5.16
2017-11-08T04:20:30.168Z,5.2
2017-11-08T04:21:30.160Z,5.18
2017-11-08T04:22:30.135Z,5.16
2017-11-08T04:23:30.132Z,5.23
2017-11-08T04:24:30.100Z,5.27
2017-11-08T04:25:30.110Z,5.24
2017-11-08T04:26:29.734Z,5.23
2017-11-08T04:27:29.743Z,5.26
2017-11-08T04:28:30.398Z,5.21
2017-11-08T04:29:30.055Z,5.2
2017-11-08T04:30:30.023Z,5.34
2017-11-08T04:31:30.351Z,5.23
2017-11-08T04:32:29.668Z,5.36
2017-11-08T04:33:29.640Z,5.18
2017-11-08T04:34:29.967Z,5.21
2017-11-08T04:35:29.609Z,5.27
2017-11-08T04:36:29.943Z,5.2
2017-11-08T04:37:29.599Z,5.23
2017-11-08T04:38:29.566Z,5.3
2017-11-08T04:39:29.554Z,5.27
2017-11-08T04:40:29.896Z,5.23
2017-11-08T04:41:30.223Z,5.21
2017-11-08T04:42:29.512Z,5.24
2017-11-08T04:43:30.174Z,5.23
2017-11-08T04:44:29.483Z,5.26
2017-11-08T04:45:29.467Z,5.21
2017-11-08T04:46:29.801Z,5.26
2017-11-08T04:47:30.136Z,5.24
2017-11-08T04:48:29.777Z,5.26
2017-11-08T04:49:29.762Z,5.24
2017-11-08T04:50:29.413Z,5.34
2017-11-08T04:51:29.725Z,5.26
2017-11-08T04:52:29.711Z,5.28
2017-11-08T04:53:29.355Z,5.23
2017-11-08T04:54:29.343Z,5.21
2017-11-08T04:55:29.668Z,5.26
2017-11-08T04:56:29.655Z,5.26
2017-11-08T04:57:29.650Z,5.28
2017-11-08T04:58:29.628Z,5.16
2017-11-08T04:59:29.272Z,5.12
2017-11-08T05:00:29.257Z,5.02
2017-11-08T05:01:29.245Z,4.92
2017-11-08T05:02:29.570Z,4.91
2017-11-08T05:03:29.216Z,4.78
2017-11-08T05:04:29.550Z,4.79
2017-11-08T05:05:29.529Z,4.68
2017-11-08T05:06:29.859Z,4.71
2017-11-08T05:07:29.851Z,4.61
2017-11-08T05:08:29.149Z,4.64
2017-11-08T05:09:29.498Z,4.53
2017-11-08T05:10:29.124Z,4.53
2017-11-08T05:11:29.794Z,4.54
2017-11-08T05:12:29.430Z,4.47
2017-11-08T05:13:29.414Z,4.44
2017-11-08T05:14:29.062Z,4.44
2017-11-08T05:15:29.725Z,4.3
2017-11-08T05:16:29.375Z,4.29
2017-11-08T05:17:29.703Z,4.28
2017-11-08T05:18:29.340Z,4.29
2017-11-08T05:19:28.988Z,4.33
2017-11-08T05:20:28.985Z,4.38
2017-11-08T05:21:29.307Z,4.26
2017-11-08T05:22:29.291Z,4.21
2017-11-08T05:23:28.934Z,4.3
2017-11-08T05:24:29.264Z,4.32
2017-11-08T05:25:28.902Z,4.28
2017-11-08T05:26:29.238Z,4.3
2017-11-08T05:27:28.888Z,4.35
2017-11-08T05:28:29.543Z,4.39
2017-11-08T05:29:28.843Z,4.47
2017-11-08T05:30:28.835Z,4.44
2017-11-08T05:31:29.156Z,4.44
2017-11-08T05:32:28.814Z,4.48
2017-11-08T05:33:29.472Z,4.39
2017-11-08T05:34:28.772Z,4.46
2017-11-08T05:35:28.758Z,4.39
2017-11-08T05:36:28.743Z,4.36
2017-11-08T05:37:29.086Z,4.26
2017-11-08T05:38:28.717Z,4.32
2017-11-08T05:39:28.700Z,4.22
2017-11-08T05:40:28.682Z,4.24
2017-11-08T05:41:28.671Z,4.14
2017-11-08T05:42:28.995Z,4.2
2017-11-08T05:43:28.987Z,4.17
2017-11-08T05:44:28.645Z,4.18
2017-11-08T05:45:28.618Z,4.17
2017-11-08T05:46:28.939Z,4.18
2017-11-08T05:47:28.929Z,4.18
2017-11-08T05:48:28.568Z,4.15
2017-11-08T05:49:28.896Z,4.21
2017-11-08T05:50:28.552Z,4.28
2017-11-08T05:51:28.526Z,4.28
2017-11-08T05:52:29.194Z,4.3
2017-11-08T05:53:29.183Z,4.32
2017-11-08T05:54:28.836Z,4.29
2017-11-08T05:55:28.467Z,4.26
2017-11-08T05:56:28.453Z,4.28
2017-11-08T05:57:28.793Z,4.3
2017-11-08T05:58:28.626Z,4.3
2017-11-08T05:59:28.413Z,4.36
2017-11-08T06:00:28.740Z,4.29
2017-11-08T06:01:29.066Z,4.32
2017-11-08T06:02:28.388Z,4.32
2017-11-08T06:03:28.700Z,4.36
2017-11-08T06:04:29.067Z,4.26
2017-11-08T06:05:28.690Z,4.26
2017-11-08T06:06:28.318Z,4.26
2017-11-08T06:07:28.978Z,4.32
2017-11-08T06:08:28.277Z,4.28
2017-11-08T06:09:28.260Z,4.33
2017-11-08T06:10:28.589Z,4.32
2017-11-08T06:11:28.581Z,4.33
2017-11-08T06:12:28.577Z,4.36
2017-11-08T06:13:28.202Z,4.35
2017-11-08T06:14:28.198Z,4.42
2017-11-08T06:15:28.185Z,4.42
2017-11-08T06:16:28.162Z,4.53
2017-11-08T06:17:28.155Z,4.51
2017-11-08T06:18:28.471Z,4.51
2017-11-08T06:19:28.458Z,4.44
2017-11-08T06:20:28.102Z,4.47
2017-11-08T06:21:28.096Z,4.51
2017-11-08T06:22:28.422Z,4.53
2017-11-08T06:23:28.397Z,4.54
2017-11-08T06:24:28.750Z,4.57
2017-11-08T06:25:28.031Z,4.64
2017-11-08T06:26:28.016Z,4.75
2017-11-08T06:27:28.350Z,4.68
2017-11-08T06:28:27.986Z,4.76
2017-11-08T06:29:28.311Z,4.74
2017-11-08T06:30:28.294Z,4.84
2017-11-08T06:31:28.284Z,4.83
2017-11-08T06:32:27.927Z,4.88
2017-11-08T06:33:27.912Z,4.91
2017-11-08T06:34:28.234Z,4.94
2017-11-08T06:35:28.583Z,5
2017-11-08T06:36:27.869Z,4.92
2017-11-08T06:37:27.867Z,4.97
2017-11-08T06:38:28.178Z,5.06
2017-11-08T06:39:27.845Z,5.05
2017-11-08T06:40:28.498Z,5.1
2017-11-08T06:41:28.143Z,5.18
2017-11-08T06:42:27.805Z,5.18
2017-11-08T06:43:27.768Z,5.28
2017-11-08T06:44:28.093Z,5.24
2017-11-08T06:45:28.077Z,5.34
2017-11-08T06:46:28.067Z,5.36
2017-11-08T06:47:27.715Z,5.48
2017-11-08T06:48:28.375Z,5.39
2017-11-08T06:49:28.020Z,5.41
2017-11-08T06:50:28.008Z,5.44
2017-11-08T06:51:28.337Z,5.44
2017-11-08T06:52:27.996Z,5.44
2017-11-08T06:53:27.632Z,5.45
2017-11-08T06:54:27.607Z,5.42
2017-11-08T06:55:27.967Z,5.34
2017-11-08T06:56:27.582Z,5.44
2017-11-08T06:57:27.914Z,5.45
2017-11-08T06:58:27.552Z,5.48
2017-11-08T06:59:27.897Z,5.51
2017-11-08T07:00:27.869Z,5.59
2017-11-08T07:01:27.851Z,5.63
2017-11-08T07:02:27.839Z,5.66
2017-11-08T07:03:27.831Z,5.64
2017-11-08T07:04:27.466Z,5.62
2017-11-08T07:05:27.795Z,5.59
2017-11-08T07:06:28.121Z,5.64
2017-11-08T07:07:27.764Z,5.69
2017-11-08T07:08:28.121Z,5.7
2017-11-08T07:09:27.398Z,5.72
2017-11-08T07:10:27.389Z,5.78
2017-11-08T07:11:27.370Z,5.7
2017-11-08T07:12:27.713Z,5.84
2017-11-08T07:13:27.682Z,5.78
2017-11-08T07:14:27.689Z,5.81
2017-11-08T07:15:27.322Z,5.8
2017-11-08T07:16:27.299Z,5.73
2017-11-08T07:17:27.289Z,5.81
2017-11-08T07:18:27.300Z,5.8
2017-11-08T07:19:27.258Z,5.81
2017-11-08T07:20:27.605Z,5.75
2017-11-08T07:21:27.234Z,5.75
2017-11-08T07:22:27.232Z,5.75
2017-11-08T07:23:27.257Z,5.69
2017-11-08T07:24:27.536Z,5.77
2017-11-08T07:25:27.521Z,5.8
2017-11-08T07:26:27.503Z,5.73
2017-11-08T07:27:27.501Z,5.78
2017-11-08T07:28:27.493Z,5.8
2017-11-08T07:29:27.120Z,5.88
2017-11-08T07:30:27.474Z,5.89
2017-11-08T07:31:27.095Z,5.89
2017-11-08T07:32:27.759Z,5.95
2017-11-08T07:33:27.090Z,5.95
2017-11-08T07:34:27.052Z,5.95
2017-11-08T07:35:27.043Z,5.96
2017-11-08T07:36:27.035Z,6.03
2017-11-08T07:37:27.358Z,6.02
2017-11-08T07:38:26.996Z,5.99
2017-11-08T07:39:27.352Z,6.14
2017-11-08T07:40:27.327Z,6.06
2017-11-08T07:41:27.305Z,6.07
2017-11-08T07:42:27.283Z,6.13
2017-11-08T07:43:27.292Z,6.15
2017-11-08T07:44:27.256Z,6.26
2017-11-08T07:45:27.245Z,6.4
2017-11-08T07:46:27.229Z,6.46
2017-11-08T07:47:26.876Z,6.49
2017-11-08T07:48:27.202Z,6.55
2017-11-08T07:49:27.536Z,6.46
2017-11-08T07:50:26.836Z,6.57
2017-11-08T07:51:27.500Z,6.61
2017-11-08T07:52:26.810Z,6.62
2017-11-08T07:53:27.138Z,6.72
2017-11-08T07:54:26.806Z,6.75
2017-11-08T07:55:27.112Z,6.73
2017-11-08T07:56:26.775Z,6.82
2017-11-08T07:57:26.753Z,6.82
2017-11-08T07:58:26.730Z,6.91
2017-11-08T07:59:26.723Z,6.94
2017-11-08T08:00:27.053Z,6.97
2017-11-08T08:01:27.044Z,7.01
2017-11-08T08:02:27.016Z,7.03
2017-11-08T08:03:27.011Z,7.01
2017-11-08T08:04:27.005Z,7.05
2017-11-08T08:05:26.978Z,7.03
2017-11-08T08:06:26.627Z,7.08
2017-11-08T08:07:26.611Z,7.09
2017-11-08T08:08:26.600Z,7.12
2017-11-08T08:09:26.926Z,7.08
2017-11-08T08:10:26.591Z,7.18
2017-11-08T08:11:26.559Z,7.16
2017-11-08T08:12:26.905Z,7.18
2017-11-08T08:13:26.653Z,7.16
2017-11-08T08:14:27.212Z,7.23
2017-11-08T08:15:27.330Z,7.21
2017-11-08T08:16:26.564Z,7.19
2017-11-08T08:17:26.884Z,7.27
2017-11-08T08:18:27.168Z,7.29
2017-11-08T08:19:26.819Z,7.23
2017-11-08T08:20:26.784Z,7.27
2017-11-08T08:21:26.800Z,7.27
2017-11-08T08:22:26.810Z,7.37
2017-11-08T08:23:26.410Z,7.36
2017-11-08T08:24:26.395Z,7.36
2017-11-08T08:25:26.726Z,7.33
2017-11-08T08:26:26.377Z,7.31
2017-11-08T08:27:26.698Z,7.34
2017-11-08T08:28:26.707Z,7.37
2017-11-08T08:29:26.332Z,7.45
2017-11-08T08:30:26.342Z,7.37
2017-11-08T08:31:26.306Z,7.54
2017-11-08T08:32:26.634Z,7.48
2017-11-08T08:33:26.623Z,7.45
2017-11-08T08:34:26.290Z,7.51
2017-11-08T08:35:26.257Z,7.58
2017-11-08T08:36:26.246Z,7.58
2017-11-08T08:37:26.243Z,7.59
2017-11-08T08:38:27.250Z,7.78
2017-11-08T08:39:26.222Z,7.74
2017-11-08T08:40:26.536Z,7.78
2017-11-08T08:41:26.184Z,7.82
2017-11-08T08:42:26.511Z,7.89
2017-11-08T08:43:26.523Z,8.04
2017-11-08T08:44:26.148Z,7.99
2017-11-08T08:45:26.135Z,8.01
2017-11-08T08:46:26.489Z,8.04
2017-11-08T08:47:26.111Z,7.96
2017-11-08T08:48:26.438Z,8.01
2017-11-08T08:49:26.448Z,7.91
2017-11-08T08:50:26.417Z,7.99
2017-11-08T08:51:26.510Z,7.95
2017-11-08T08:52:26.397Z,7.95
2017-11-08T08:53:26.772Z,7.95
2017-11-08T08:54:26.027Z,7.98
2017-11-08T08:55:26.018Z,7.99
2017-11-08T08:56:26.343Z,8.01
2017-11-08T08:57:25.991Z,8.01
2017-11-08T08:58:26.321Z,8.03
2017-11-08T08:59:26.309Z,8.06
2017-11-08T09:00:25.955Z,8.1
2017-11-08T09:01:25.948Z,8.21
2017-11-08T09:02:25.930Z,8.14
2017-11-08T09:03:26.270Z,8.07
2017-11-08T09:04:26.587Z,8.32
2017-11-08T09:05:26.571Z,8.31
2017-11-08T09:06:26.225Z,8.22
2017-11-08T09:07:26.555Z,8.25
2017-11-08T09:08:26.221Z,8.28
2017-11-08T09:09:26.191Z,8.32
2017-11-08T09:10:25.840Z,8.36
2017-11-08T09:11:25.826Z,8.35
2017-11-08T09:12:26.155Z,8.25
2017-11-08T09:13:26.146Z,8.22
2017-11-08T09:14:25.794Z,8.22
2017-11-08T09:15:25.782Z,8.26
2017-11-08T09:16:25.773Z,8.22
2017-11-08T09:17:25.773Z,8.19
2017-11-08T09:18:26.094Z,8.25
2017-11-08T09:19:25.745Z,8.28
2017-11-08T09:20:26.073Z,8.22
2017-11-08T09:21:25.736Z,8.28
2017-11-08T09:22:25.703Z,8.32
2017-11-08T09:23:26.031Z,8.42
2017-11-08T09:24:25.682Z,8.42
2017-11-08T09:25:26.018Z,8.47
2017-11-08T09:26:25.653Z,8.43
2017-11-08T09:27:25.991Z,8.43
2017-11-08T09:28:25.969Z,8.4
2017-11-08T09:29:25.962Z,8.39
2017-11-08T09:30:25.611Z,8.42
2017-11-08T09:31:25.614Z,8.39
2017-11-08T09:32:25.935Z,8.46
2017-11-08T09:33:25.577Z,8.43
2017-11-08T09:34:25.640Z,8.39
2017-11-08T09:35:25.958Z,8.29
2017-11-08T09:36:25.649Z,8.35
2017-11-08T09:37:25.546Z,8.29
2017-11-08T09:38:26.133Z,8.32
2017-11-08T09:39:25.956Z,8.31
2017-11-08T09:40:25.846Z,8.25
2017-11-08T09:41:25.825Z,8.24
2017-11-08T09:42:25.481Z,8.06
2017-11-08T09:43:25.588Z,8.06
2017-11-08T09:44:25.472Z,8.13
2017-11-08T09:45:25.465Z,8.24
2017-11-08T09:46:25.430Z,8.17
2017-11-08T09:47:25.768Z,8.19
2017-11-08T09:48:25.820Z,8.14
2017-11-08T09:49:25.478Z,8.19
2017-11-08T09:50:25.885Z,8.17
2017-11-08T09:51:26.068Z,8.11
2017-11-08T09:52:25.373Z,8.21
2017-11-08T09:53:25.694Z,8.16
2017-11-08T09:54:25.337Z,8.13
2017-11-08T09:55:26.035Z,8.04
2017-11-08T09:56:25.670Z,8.16
2017-11-08T09:57:25.641Z,8.14
2017-11-08T09:58:25.291Z,8.06
2017-11-08T09:59:25.618Z,8.14
2017-11-08T10:00:25.278Z,8.11
2017-11-08T10:01:25.620Z,8.14
2017-11-08T10:02:25.599Z,8.07
2017-11-08T10:03:25.256Z,8.13
2017-11-08T10:04:25.931Z,8.13
2017-11-08T10:05:25.580Z,8.1
2017-11-08T10:06:25.537Z,8.09
2017-11-08T10:07:25.187Z,8.17
2017-11-08T10:08:25.577Z,8.14
2017-11-08T10:09:25.167Z,8.09
2017-11-08T10:10:25.493Z,8.09
2017-11-08T10:11:25.487Z,8.1
2017-11-08T10:12:25.473Z,8.11
2017-11-08T10:13:25.863Z,8.07
2017-11-08T10:14:25.114Z,8.04
2017-11-08T10:15:25.812Z,7.99
2017-11-08T10:16:25.449Z,8.03
2017-11-08T10:17:25.420Z,8.21
2017-11-08T10:18:25.470Z,8.09
2017-11-08T10:19:25.389Z,8.09
2017-11-08T10:20:25.044Z,8.11
2017-11-08T10:21:25.375Z,8.09
2017-11-08T10:22:25.352Z,8.09
2017-11-08T10:23:25.011Z,8.09
2017-11-08T10:24:25.084Z,8.19
2017-11-08T10:25:24.991Z,8.09
2017-11-08T10:26:25.309Z,8.09
2017-11-08T10:27:24.958Z,8.11
2017-11-08T10:28:24.964Z,8.06
2017-11-08T10:29:24.934Z,8.1
2017-11-08T10:30:25.259Z,8.1
2017-11-08T10:31:25.271Z,8.03
2017-11-08T10:32:24.925Z,7.99
2017-11-08T10:33:25.574Z,8.04
2017-11-08T10:34:25.223Z,8.09
2017-11-08T10:35:24.873Z,8.1
2017-11-08T10:36:25.201Z,8.11
2017-11-08T10:37:24.842Z,8.04
2017-11-08T10:38:24.830Z,8.07
2017-11-08T10:39:24.819Z,8.13
2017-11-08T10:40:24.809Z,8.14
2017-11-08T10:41:25.496Z,8.01
2017-11-08T10:42:25.093Z,8.11
2017-11-08T10:43:24.844Z,8.16
2017-11-08T10:44:25.076Z,8.04
2017-11-08T10:45:25.076Z,8.07
2017-11-08T10:46:24.700Z,8.09
2017-11-08T10:47:25.041Z,8.13
2017-11-08T10:48:25.020Z,8.1
2017-11-08T10:49:24.667Z,8.09
2017-11-08T10:50:24.999Z,8.11
2017-11-08T10:51:24.658Z,8.16
2017-11-08T10:52:25.349Z,8.14
2017-11-08T10:53:25.305Z,8.14
2017-11-08T10:54:24.951Z,8.19
2017-11-08T10:55:24.598Z,8.07
2017-11-08T10:56:24.924Z,8.07
2017-11-08T10:57:24.922Z,8.16
2017-11-08T10:58:24.916Z,8.14
2017-11-08T10:59:24.903Z,8.19
2017-11-08T11:00:24.888Z,8.22
2017-11-08T11:01:24.868Z,8.22
2017-11-08T11:02:24.912Z,8.28
2017-11-08T11:03:24.854Z,8.29
2017-11-08T11:04:24.495Z,8.39
2017-11-08T11:05:24.825Z,8.31
2017-11-08T11:06:25.171Z,8.46
2017-11-08T11:07:24.459Z,8.46
2017-11-08T11:08:24.810Z,8.49
2017-11-08T11:09:24.779Z,8.49
2017-11-08T11:10:24.768Z,8.5
2017-11-08T11:11:24.418Z,8.36
2017-11-08T11:12:25.106Z,8.47
2017-11-08T11:13:24.747Z,8.44
2017-11-08T11:14:24.728Z,8.5
2017-11-08T11:15:24.718Z,8.43
2017-11-08T11:16:24.358Z,8.4
2017-11-08T11:17:24.710Z,8.42
2017-11-08T11:18:24.355Z,8.4
2017-11-08T11:19:24.669Z,8.47
2017-11-08T11:20:24.683Z,8.47
2017-11-08T11:21:24.305Z,8.47
2017-11-08T11:22:24.292Z,8.49
2017-11-08T11:23:24.641Z,8.49
2017-11-08T11:24:24.628Z,8.47
2017-11-08T11:25:24.601Z,8.5
2017-11-08T11:26:24.272Z,8.5
2017-11-08T11:27:24.578Z,8.5
2017-11-08T11:28:24.231Z,8.46
2017-11-08T11:29:24.224Z,8.52
2017-11-08T11:30:24.543Z,8.49
2017-11-08T11:31:24.547Z,8.42
2017-11-08T11:32:24.185Z,8.31
2017-11-08T11:33:24.174Z,8.32
2017-11-08T11:34:24.882Z,8.25
2017-11-08T11:35:24.538Z,8.24
2017-11-08T11:36:24.987Z,8.24
2017-11-08T11:37:24.277Z,8.19
2017-11-08T11:38:24.509Z,8.16
2017-11-08T11:39:24.464Z,8.19
2017-11-08T11:40:24.462Z,8.19
2017-11-08T11:41:24.462Z,8.22
2017-11-08T11:42:24.758Z,8.28
2017-11-08T11:43:24.409Z,8.22
2017-11-08T11:44:24.053Z,8.35
2017-11-08T11:45:24.384Z,8.26
2017-11-08T11:46:24.059Z,8.4
2017-11-08T11:47:24.710Z,8.35
2017-11-08T11:48:24.729Z,8.35
2017-11-08T11:49:24.361Z,8.35
2017-11-08T11:50:23.983Z,8.32
2017-11-08T11:51:24.330Z,8.22
2017-11-08T11:52:23.962Z,8.31
2017-11-08T11:53:24.651Z,8.22
2017-11-08T11:54:24.304Z,8.17
2017-11-08T11:55:24.609Z,8.16
2017-11-08T11:56:23.916Z,8.22
2017-11-08T11:57:23.918Z,8.16
2017-11-08T11:58:23.892Z,8.13
2017-11-08T11:59:24.224Z,8.09
2017-11-08T12:00:24.240Z,8.04
2017-11-08T12:01:24.199Z,8.06
2017-11-08T12:02:23.847Z,8.06
2017-11-08T12:03:24.186Z,8.06
2017-11-08T12:04:24.166Z,8.04
2017-11-08T12:05:23.812Z,7.99
2017-11-08T12:06:24.154Z,8.01
2017-11-08T12:07:24.155Z,7.96
2017-11-08T12:08:24.139Z,7.96
2017-11-08T12:09:23.784Z,7.88
2017-11-08T12:10:23.764Z,7.95
2017-11-08T12:11:24.091Z,7.85
2017-11-08T12:12:23.743Z,7.83
2017-11-08T12:13:24.408Z,7.8
2017-11-08T12:14:23.708Z,7.77
2017-11-08T12:15:24.044Z,7.75
2017-11-08T12:16:24.029Z,7.83
2017-11-08T12:17:24.017Z,7.8
2017-11-08T12:18:24.007Z,7.86
2017-11-08T12:19:24.484Z,7.75
2017-11-08T12:20:24.035Z,7.86
2017-11-08T12:21:23.998Z,7.92
2017-11-08T12:22:23.733Z,7.91
2017-11-08T12:23:24.018Z,7.88
2017-11-08T12:24:23.938Z,7.93
2017-11-08T12:25:23.922Z,7.89
2017-11-08T12:26:23.922Z,7.93
2017-11-08T12:27:24.249Z,7.89
2017-11-08T12:28:24.227Z,7.91
2017-11-08T12:29:23.884Z,7.98
2017-11-08T12:30:23.865Z,8.04
2017-11-08T12:31:23.870Z,8.1
2017-11-08T12:32:24.181Z,8.21
2017-11-08T12:33:23.854Z,8.24
2017-11-08T12:34:23.838Z,8.21
2017-11-08T12:35:23.804Z,8.22
2017-11-08T12:36:23.451Z,8.35
2017-11-08T12:37:23.785Z,8.39
2017-11-08T12:38:23.426Z,8.28
2017-11-08T12:39:23.434Z,8.35
2017-11-08T12:40:24.093Z,8.28
2017-11-08T12:41:24.097Z,8.34
2017-11-08T12:42:23.723Z,8.32
2017-11-08T12:43:23.709Z,8.24
2017-11-08T12:44:23.371Z,8.21
2017-11-08T12:45:24.047Z,8.24
2017-11-08T12:46:23.685Z,8.21
2017-11-08T12:47:23.335Z,8.22
2017-11-08T12:48:23.655Z,8.24
2017-11-08T12:49:23.640Z,8.22
2017-11-08T12:50:23.295Z,8.14
2017-11-08T12:51:23.275Z,8.13
2017-11-08T12:52:23.606Z,8.13
2017-11-08T12:53:23.594Z,8.21
2017-11-08T12:54:23.245Z,8.21
2017-11-08T12:55:23.230Z,8.31
2017-11-08T12:56:23.578Z,8.22
2017-11-08T12:57:23.914Z,8.25
2017-11-08T12:58:23.898Z,8.24
2017-11-08T12:59:23.525Z,8.29
2017-11-08T13:00:23.172Z,8.36
2017-11-08T13:01:23.170Z,8.36
2017-11-08T13:02:23.850Z,8.42
2017-11-08T13:03:23.480Z,8.35
2017-11-08T13:04:23.482Z,8.35
2017-11-08T13:05:23.458Z,8.4
2017-11-08T13:06:23.445Z,8.32
2017-11-08T13:07:23.436Z,8.34
2017-11-08T13:08:23.434Z,8.22
2017-11-08T13:09:23.418Z,8.26
2017-11-08T13:10:23.057Z,8.24
2017-11-08T13:11:23.392Z,8.19
2017-11-08T13:12:23.049Z,8.22
2017-11-08T13:13:23.365Z,8.1
2017-11-08T13:14:23.014Z,8.17
2017-11-08T13:15:23.352Z,8.14
2017-11-08T13:16:23.364Z,8.14
2017-11-08T13:17:23.668Z,8.06
2017-11-08T13:18:22.966Z,8.04
2017-11-08T13:19:23.296Z,8.04
2017-11-08T13:20:23.286Z,8.06
2017-11-08T13:21:23.283Z,8.07